createdAt,value
2018-07-19T00:01:15.440Z,18.30
2018-07-19T00:03:43.958Z,18.30
2018-07-19T00:06:12.448Z,18.30
2018-07-19T00:08:40.961Z,18.30
2018-07-19T00:11:09.511Z,18.30
2018-07-19T00:13:38.012Z,18.30
2018-07-19T00:16:06.470Z,18.30
2018-07-19T00:18:34.953Z,18.20
2018-07-19T00:21:03.462Z,18.20
2018-07-19T00:23:31.934Z,18.20
2018-07-19T00:26:00.453Z,18.20
2018-07-19T00:28:28.935Z,18.20
2018-07-19T00:30:57.410Z,18.20
2018-07-19T00:33:25.893Z,18.20
2018-07-19T00:35:54.354Z,18.10
2018-07-19T00:38:22.846Z,18.20
2018-07-19T00:40:51.317Z,18.20
2018-07-19T00:45:47.934Z,18.20
2018-07-19T00:48:17.469Z,18.20
2018-07-19T00:50:45.941Z,18.10
2018-07-19T00:53:14.424Z,18.10
2018-07-19T00:55:42.893Z,18.10
2018-07-19T00:58:11.381Z,18.10
2018-07-19T01:00:39.889Z,18.10
2018-07-19T01:03:08.387Z,18.10
2018-07-19T01:05:36.848Z,18.10
2018-07-19T01:08:05.514Z,18.10
2018-07-19T01:10:34.078Z,18.10
2018-07-19T01:13:02.543Z,18.10
2018-07-19T01:15:31.077Z,18.10
2018-07-19T01:20:28.705Z,18.10
2018-07-19T01:22:57.218Z,18.00
2018-07-19T01:25:25.730Z,18.00
2018-07-19T01:27:54.229Z,17.90
2018-07-19T01:30:22.731Z,17.90
2018-07-19T01:32:51.281Z,17.90
2018-07-19T01:37:47.997Z,17.90
2018-07-19T01:40:16.498Z,17.80
2018-07-19T01:42:45.641Z,17.80
2018-07-19T01:45:14.633Z,17.90
2018-07-19T01:47:43.117Z,17.90
2018-07-19T01:50:12.083Z,17.80
2018-07-19T01:52:40.658Z,17.80
2018-07-19T01:55:09.578Z,17.80
2018-07-19T01:57:38.136Z,17.70
2018-07-19T02:00:07.173Z,17.70
2018-07-19T02:02:35.658Z,17.70
2018-07-19T02:05:04.318Z,17.60
2018-07-19T02:07:32.847Z,17.60
2018-07-19T02:10:01.329Z,17.50
2018-07-19T02:12:29.805Z,17.60
2018-07-19T02:14:58.532Z,17.50
2018-07-19T02:17:26.972Z,17.50
2018-07-19T02:19:55.806Z,17.60
2018-07-19T02:22:25.278Z,17.50
2018-07-19T02:24:53.770Z,17.60
2018-07-19T02:27:22.271Z,17.50
2018-07-19T02:29:51.805Z,17.60
2018-07-19T02:32:20.281Z,17.60
2018-07-19T02:34:48.761Z,17.60
2018-07-19T02:37:17.326Z,17.50
2018-07-19T02:39:46.021Z,17.60
2018-07-19T02:42:14.515Z,17.50
2018-07-19T02:47:11.527Z,17.40
2018-07-19T02:49:40.330Z,17.40
2018-07-19T02:52:08.854Z,17.50
2018-07-19T02:54:37.412Z,17.40
2018-07-19T02:57:05.987Z,17.50
2018-07-19T02:59:34.595Z,17.40
2018-07-19T03:02:03.121Z,17.30
2018-07-19T03:04:31.799Z,17.30
2018-07-19T03:07:00.521Z,17.30
2018-07-19T03:09:28.973Z,17.30
2018-07-19T03:11:57.448Z,17.30
2018-07-19T03:14:25.917Z,17.30
2018-07-19T03:16:54.377Z,17.20
2018-07-19T03:19:22.882Z,17.20
2018-07-19T03:21:51.342Z,17.20
2018-07-19T03:24:19.809Z,17.10
2018-07-19T03:26:48.301Z,17.10
2018-07-19T03:29:16.765Z,17.00
2018-07-19T03:31:45.217Z,17.00
2018-07-19T03:34:13.933Z,16.90
2018-07-19T03:36:42.412Z,16.90
2018-07-19T03:39:11.577Z,16.80
2018-07-19T03:41:40.138Z,16.80
2018-07-19T03:44:08.850Z,16.90
2018-07-19T03:46:37.338Z,16.80
2018-07-19T03:49:05.906Z,16.80
2018-07-19T03:51:34.385Z,16.80
2018-07-19T03:54:02.896Z,16.80
2018-07-19T03:56:31.334Z,16.90
2018-07-19T04:01:27.999Z,16.90
2018-07-19T04:03:56.553Z,16.90
2018-07-19T04:06:25.038Z,16.80
2018-07-19T04:08:53.523Z,16.80
2018-07-19T04:11:22.549Z,16.80
2018-07-19T04:13:51.041Z,16.90
2018-07-19T04:16:19.490Z,17.00
2018-07-19T04:18:47.981Z,17.10
2018-07-19T04:23:44.909Z,17.00
2018-07-19T04:26:14.405Z,17.10
2018-07-19T04:28:42.945Z,17.10
2018-07-19T04:31:11.413Z,17.20
2018-07-19T04:36:08.521Z,17.90
2018-07-19T04:38:37.017Z,18.80
2018-07-19T04:41:05.569Z,19.90
2018-07-19T04:43:34.017Z,21.00
2018-07-19T04:46:02.633Z,21.70
2018-07-19T04:48:31.182Z,22.60
2018-07-19T04:50:59.716Z,23.10
2018-07-19T04:53:28.212Z,23.80
2018-07-19T04:55:56.697Z,24.00
2018-07-19T04:58:25.213Z,24.00
2018-07-19T05:00:53.723Z,24.40
2018-07-19T05:03:22.235Z,24.90
2018-07-19T05:05:51.001Z,24.70
2018-07-19T05:08:19.461Z,24.20
2018-07-19T05:10:48.272Z,24.20
2018-07-19T05:18:13.054Z,24.10
2018-07-19T05:20:41.585Z,24.40
2018-07-19T05:23:10.109Z,24.60
2018-07-19T05:25:38.550Z,24.40
2018-07-19T05:28:07.029Z,24.60
2018-07-19T05:30:35.514Z,24.90
2018-07-19T05:33:04.008Z,25.20
2018-07-19T05:35:32.526Z,25.40
2018-07-19T05:38:00.972Z,26.10
2018-07-19T05:40:29.995Z,26.70
2018-07-19T05:42:58.404Z,26.90
2018-07-19T05:45:26.894Z,27.30
2018-07-19T05:47:55.353Z,27.30
2018-07-19T05:50:23.909Z,27.50
2018-07-19T05:52:52.410Z,27.80
2018-07-19T05:55:20.938Z,28.10
2018-07-19T05:57:49.418Z,28.50
2018-07-19T06:00:17.916Z,29.40
2018-07-19T06:02:46.450Z,29.10
2018-07-19T06:05:15.003Z,28.90
2018-07-19T06:07:43.617Z,28.90
2018-07-19T06:10:12.161Z,28.60
2018-07-19T06:12:40.645Z,28.80
2018-07-19T06:15:09.163Z,29.20
2018-07-19T06:17:37.637Z,29.50
2018-07-19T06:20:07.258Z,29.90
2018-07-19T06:22:36.262Z,30.00
2018-07-19T06:25:04.898Z,29.60
2018-07-19T06:27:33.677Z,29.50
2018-07-19T06:30:02.779Z,29.60
2018-07-19T06:32:32.226Z,28.60
2018-07-19T06:35:00.694Z,27.50
2018-07-19T06:37:29.211Z,26.80
2018-07-19T06:39:57.684Z,26.00
2018-07-19T06:42:26.166Z,25.10
2018-07-19T06:44:54.702Z,24.00
2018-07-19T06:47:23.195Z,23.60
2018-07-19T06:49:51.888Z,23.20
2018-07-19T06:52:20.353Z,23.10
2018-07-19T06:54:48.825Z,23.00
2018-07-19T06:57:17.514Z,22.80
2018-07-19T06:59:46.238Z,22.70
2018-07-19T07:02:14.713Z,22.60
2018-07-19T07:04:43.213Z,22.40
2018-07-19T07:07:11.706Z,22.50
2018-07-19T07:09:40.180Z,22.40
2018-07-19T07:12:08.652Z,21.90
2018-07-19T07:14:37.196Z,21.70
2018-07-19T07:17:05.795Z,21.70
2018-07-19T07:19:34.276Z,22.00
2018-07-19T07:22:02.786Z,21.80
2018-07-19T07:24:31.258Z,21.80
2018-07-19T07:26:59.762Z,21.60
2018-07-19T07:29:28.253Z,21.60
2018-07-19T07:31:56.726Z,21.60
2018-07-19T07:34:25.277Z,21.80
2018-07-19T07:36:53.786Z,21.80
2018-07-19T07:39:22.309Z,21.70
2018-07-19T07:44:19.052Z,21.60
2018-07-19T07:46:47.525Z,21.70
2018-07-19T07:49:15.992Z,21.70
2018-07-19T07:51:44.570Z,21.70
2018-07-19T07:54:13.071Z,21.80
2018-07-19T07:56:41.539Z,21.60
2018-07-19T07:59:10.003Z,21.80
2018-07-19T08:01:38.489Z,22.00
2018-07-19T08:04:07.053Z,21.80
2018-07-19T08:06:35.906Z,21.80
2018-07-19T08:09:06.779Z,21.70
2018-07-19T08:11:35.305Z,21.80
2018-07-19T08:14:03.869Z,21.90
2018-07-19T08:16:32.391Z,22.20
2018-07-19T08:19:00.849Z,22.10
2018-07-19T08:21:29.350Z,22.30
2018-07-19T08:23:58.279Z,22.30
2018-07-19T08:26:26.785Z,22.40
2018-07-19T08:28:55.264Z,22.50
2018-07-19T08:31:23.755Z,22.80
2018-07-19T08:33:52.241Z,22.90
2018-07-19T08:36:20.755Z,22.90
2018-07-19T08:38:49.238Z,22.60
2018-07-19T08:41:17.762Z,22.60
2018-07-19T08:43:46.264Z,22.70
2018-07-19T08:46:14.726Z,22.60
2018-07-19T08:48:43.308Z,22.60
2018-07-19T08:51:11.798Z,22.70
2018-07-19T08:53:40.318Z,22.70
2018-07-19T08:56:08.843Z,22.60
2018-07-19T08:58:37.560Z,22.80
2018-07-19T09:01:06.167Z,22.70
2018-07-19T09:03:34.697Z,22.90
2018-07-19T09:06:03.226Z,23.10
2018-07-19T09:08:31.713Z,23.20
2018-07-19T09:11:00.212Z,23.20
2018-07-19T09:13:28.709Z,23.20
2018-07-19T09:15:57.239Z,23.20
2018-07-19T09:18:25.759Z,23.30
2018-07-19T09:20:54.483Z,23.30
2018-07-19T09:25:51.143Z,23.20
2018-07-19T09:28:19.622Z,23.20
2018-07-19T09:30:48.104Z,23.40
2018-07-19T09:33:16.612Z,23.30
2018-07-19T09:35:45.122Z,23.30
2018-07-19T09:38:13.633Z,23.20
2018-07-19T09:40:42.117Z,23.20
2018-07-19T09:43:10.641Z,23.40
2018-07-19T09:45:39.139Z,23.60
2018-07-19T09:48:07.590Z,23.70
2018-07-19T09:50:36.081Z,23.80
2018-07-19T09:53:04.565Z,23.80
2018-07-19T09:55:33.085Z,23.70
2018-07-19T09:58:01.551Z,23.90
2018-07-19T10:00:35.336Z,24.00
2018-07-19T10:03:03.790Z,24.00
2018-07-19T10:05:32.347Z,24.00
2018-07-19T10:08:00.847Z,23.90
2018-07-19T10:10:29.354Z,23.90
2018-07-19T10:12:57.818Z,23.90
2018-07-19T10:15:26.556Z,23.80
2018-07-19T10:17:55.575Z,23.90
2018-07-19T10:20:24.146Z,24.10
2018-07-19T10:22:53.380Z,24.10
2018-07-19T10:25:21.923Z,24.10
2018-07-19T10:27:50.564Z,24.00
2018-07-19T10:30:19.098Z,24.00
2018-07-19T10:32:47.628Z,24.10
2018-07-19T10:35:16.164Z,24.30
2018-07-19T10:37:44.657Z,24.20
2018-07-19T10:40:13.754Z,24.30
2018-07-19T10:42:42.358Z,24.40
2018-07-19T10:45:10.947Z,24.20
2018-07-19T10:47:39.430Z,24.30
2018-07-19T10:50:07.994Z,24.30
2018-07-19T10:52:36.451Z,24.50
2018-07-19T10:55:05.038Z,24.30
2018-07-19T10:57:33.554Z,24.40
2018-07-19T11:00:02.064Z,24.40
2018-07-19T11:04:59.535Z,24.30
2018-07-19T11:07:28.073Z,24.50
2018-07-19T11:09:56.596Z,24.60
2018-07-19T11:12:25.086Z,24.80
2018-07-19T11:14:53.581Z,24.90
2018-07-19T11:17:22.070Z,24.70
2018-07-19T11:22:18.650Z,24.70
2018-07-19T11:24:47.204Z,24.70
2018-07-19T11:27:15.671Z,24.70
2018-07-19T11:29:44.390Z,24.80
2018-07-19T11:32:12.897Z,24.80
2018-07-19T11:34:41.392Z,24.70
2018-07-19T11:37:09.861Z,24.80
2018-07-19T11:39:38.347Z,24.80
2018-07-19T11:42:06.909Z,24.70
2018-07-19T11:44:35.384Z,24.70
2018-07-19T11:47:03.902Z,24.70
2018-07-19T11:49:32.388Z,24.90
2018-07-19T11:52:00.868Z,25.10
2018-07-19T11:54:29.654Z,25.10
2018-07-19T11:56:58.161Z,24.90
2018-07-19T11:59:26.710Z,24.90
2018-07-19T12:01:55.214Z,25.00
2018-07-19T12:04:23.653Z,25.20
2018-07-19T12:06:52.127Z,25.30
2018-07-19T12:09:20.574Z,25.20
2018-07-19T12:11:49.053Z,25.30
2018-07-19T12:14:17.530Z,25.50
2018-07-19T12:16:45.991Z,25.30
2018-07-19T12:19:14.467Z,25.20
2018-07-19T12:21:43.067Z,25.20
2018-07-19T12:24:12.257Z,25.30
2018-07-19T12:26:41.100Z,25.30
2018-07-19T12:31:37.754Z,25.30
2018-07-19T12:34:06.198Z,25.40
2018-07-19T12:36:34.733Z,25.30
2018-07-19T12:39:03.445Z,25.50
2018-07-19T12:41:32.180Z,25.50
2018-07-19T12:44:00.628Z,25.40
2018-07-19T12:46:29.118Z,25.40
2018-07-19T12:48:57.724Z,25.40
2018-07-19T12:51:26.130Z,25.40
2018-07-19T12:56:22.993Z,25.60
2018-07-19T12:58:52.526Z,25.60
2018-07-19T13:01:20.978Z,25.60
2018-07-19T13:06:17.621Z,25.60
2018-07-19T13:08:46.382Z,25.70
2018-07-19T13:11:15.043Z,25.80
2018-07-19T13:13:43.769Z,25.90
2018-07-19T13:16:12.653Z,26.20
2018-07-19T13:18:41.140Z,26.20
2018-07-19T13:21:09.614Z,26.30
2018-07-19T13:23:38.371Z,26.30
2018-07-19T13:26:06.880Z,26.30
2018-07-19T13:28:35.619Z,26.30
2018-07-19T13:31:04.123Z,26.40
2018-07-19T13:33:32.646Z,26.60
2018-07-19T13:36:01.462Z,26.80
2018-07-19T13:40:58.349Z,26.40
2018-07-19T13:43:26.818Z,26.40
2018-07-19T13:45:55.680Z,26.50
2018-07-19T13:48:24.234Z,26.50
2018-07-19T13:50:52.723Z,26.50
2018-07-19T13:53:34.578Z,26.40
2018-07-19T13:57:04.059Z,26.30
2018-07-19T13:59:32.611Z,26.30
2018-07-19T14:02:01.079Z,26.50
2018-07-19T14:04:29.554Z,26.40
2018-07-19T14:06:58.080Z,26.60
2018-07-19T14:09:26.567Z,26.50
2018-07-19T14:11:55.051Z,26.60
2018-07-19T14:14:23.514Z,26.70
2018-07-19T14:16:51.964Z,26.60
2018-07-19T14:19:20.466Z,26.70
2018-07-19T14:21:49.030Z,26.90
2018-07-19T14:24:17.511Z,26.90
2018-07-19T14:26:46.004Z,27.10
2018-07-19T14:29:14.484Z,27.10
2018-07-19T14:31:42.977Z,27.30
2018-07-19T14:34:11.470Z,27.20
2018-07-19T14:36:40.794Z,27.20
2018-07-19T14:39:11.241Z,26.90
2018-07-19T14:41:39.753Z,26.80
2018-07-19T14:44:08.686Z,26.60
2018-07-19T14:46:37.170Z,26.30
2018-07-19T14:49:05.702Z,26.10
2018-07-19T14:51:34.179Z,26.20
2018-07-19T14:54:02.673Z,26.40
2018-07-19T14:56:31.114Z,26.60
2018-07-19T14:58:59.598Z,26.90
2018-07-19T15:01:28.117Z,26.90
2018-07-19T15:03:56.569Z,26.70
2018-07-19T15:06:25.057Z,26.70
2018-07-19T15:08:53.541Z,26.90
2018-07-19T15:13:50.142Z,26.80
2018-07-19T15:16:18.781Z,26.90
2018-07-19T15:18:47.264Z,27.00
2018-07-19T15:23:44.097Z,26.70
2018-07-19T15:26:12.602Z,26.80
2018-07-19T15:28:41.108Z,26.80
2018-07-19T15:31:09.598Z,26.80
2018-07-19T15:33:42.538Z,26.80
2018-07-19T15:36:11.142Z,26.70
2018-07-19T15:38:39.645Z,26.90
2018-07-19T15:41:08.132Z,26.90
2018-07-19T15:43:36.622Z,27.00
2018-07-19T15:46:05.134Z,27.10
2018-07-19T15:48:33.588Z,27.10
2018-07-19T15:51:02.086Z,26.90
2018-07-19T15:53:30.585Z,26.80
2018-07-19T15:55:59.274Z,26.80
2018-07-19T15:58:27.774Z,26.80
2018-07-19T16:00:56.250Z,26.80
2018-07-19T16:03:24.715Z,26.60
2018-07-19T16:05:53.447Z,26.70
2018-07-19T16:08:21.891Z,26.70
2018-07-19T16:10:50.339Z,26.70
2018-07-19T16:13:18.815Z,26.70
2018-07-19T16:15:47.274Z,26.80
2018-07-19T16:20:43.971Z,26.60
2018-07-19T16:23:12.380Z,26.50
2018-07-19T16:25:40.874Z,26.70
2018-07-19T16:28:09.322Z,26.60
2018-07-19T16:30:37.803Z,26.50
2018-07-19T16:33:06.383Z,26.60
2018-07-19T16:35:34.884Z,26.40
2018-07-19T16:38:03.419Z,26.40
2018-07-19T16:40:31.892Z,26.40
2018-07-19T16:45:28.678Z,26.40
2018-07-19T16:47:57.154Z,26.20
2018-07-19T16:50:25.644Z,26.30
2018-07-19T16:52:54.120Z,26.30
2018-07-19T16:55:22.617Z,26.10
2018-07-19T16:57:51.057Z,26.00
2018-07-19T17:00:19.567Z,26.00
2018-07-19T17:02:48.044Z,26.00
2018-07-19T17:05:16.544Z,26.20
2018-07-19T17:07:45.006Z,26.20
2018-07-19T17:10:13.496Z,26.20
2018-07-19T17:12:41.974Z,26.10
2018-07-19T17:15:10.444Z,26.10
2018-07-19T17:17:38.901Z,26.10
2018-07-19T17:20:07.365Z,26.00
2018-07-19T17:22:36.074Z,26.00
2018-07-19T17:25:04.578Z,26.10
2018-07-19T17:30:01.889Z,26.00
2018-07-19T17:32:30.508Z,25.90
2018-07-19T17:37:27.217Z,25.70
2018-07-19T17:39:56.692Z,25.50
2018-07-19T17:42:25.157Z,25.40
2018-07-19T17:44:53.604Z,25.20
2018-07-19T17:47:24.580Z,25.10
2018-07-19T17:49:53.835Z,25.00
2018-07-19T17:52:22.316Z,24.90
2018-07-19T17:54:50.797Z,24.70
2018-07-19T17:57:19.283Z,24.60
2018-07-19T17:59:47.742Z,24.50
2018-07-19T18:02:16.204Z,24.50
2018-07-19T18:07:12.822Z,24.30
2018-07-19T18:09:41.294Z,24.20
2018-07-19T18:12:10.207Z,24.10
2018-07-19T18:14:38.702Z,24.10
2018-07-19T18:17:07.417Z,24.00
2018-07-19T18:19:35.902Z,23.90
2018-07-19T18:22:04.487Z,23.90
2018-07-19T18:24:32.914Z,23.80
2018-07-19T18:27:01.402Z,23.70
2018-07-19T18:29:29.870Z,23.80
2018-07-19T18:31:58.361Z,23.70
2018-07-19T18:34:26.818Z,23.60
2018-07-19T18:36:55.302Z,23.60
2018-07-19T18:39:23.783Z,23.60
2018-07-19T18:41:52.242Z,23.50
2018-07-19T18:44:20.720Z,23.40
2018-07-19T18:46:49.185Z,23.20
2018-07-19T18:51:45.999Z,23.10
2018-07-19T18:54:14.505Z,23.00
2018-07-19T18:56:43.029Z,23.00
2018-07-19T18:59:15.215Z,22.90
2018-07-19T19:01:43.699Z,22.90
2018-07-19T19:04:13.702Z,22.80
2018-07-19T19:06:42.490Z,22.80
2018-07-19T19:09:11.997Z,22.60
2018-07-19T19:11:40.618Z,22.60
2018-07-19T19:14:09.090Z,22.40
2018-07-19T19:16:37.785Z,22.40
2018-07-19T19:19:06.287Z,22.40
2018-07-19T19:21:34.809Z,22.30
2018-07-19T19:24:03.197Z,22.30
2018-07-19T19:26:31.677Z,22.30
2018-07-19T19:29:00.147Z,22.20
2018-07-19T19:31:28.626Z,22.30
2018-07-19T19:33:57.087Z,22.20
2018-07-19T19:36:25.565Z,22.20
2018-07-19T19:38:53.997Z,22.20
2018-07-19T19:41:29.864Z,22.10
2018-07-19T19:46:26.549Z,22.00
2018-07-19T19:48:55.020Z,22.00
2018-07-19T19:51:23.477Z,21.90
2018-07-19T19:53:51.949Z,21.90
2018-07-19T19:56:20.427Z,21.90
2018-07-19T19:58:48.896Z,22.00
2018-07-19T20:01:17.469Z,22.00
2018-07-19T20:03:45.974Z,22.00
2018-07-19T20:06:14.465Z,22.00
2018-07-19T20:08:42.976Z,22.00
2018-07-19T20:11:11.426Z,21.90
2018-07-19T20:13:39.886Z,21.90
2018-07-19T20:18:36.814Z,21.90
2018-07-19T20:21:05.471Z,21.90
2018-07-19T20:23:34.259Z,21.90
2018-07-19T20:26:02.745Z,21.90
2018-07-19T20:28:31.254Z,21.80
2018-07-19T20:30:59.782Z,21.80
2018-07-19T20:35:56.370Z,21.70
2018-07-19T20:38:25.984Z,21.70
2018-07-19T20:40:54.454Z,21.70
2018-07-19T20:43:22.952Z,21.70
2018-07-19T20:45:52.222Z,21.70
2018-07-19T20:48:21.074Z,21.60
2018-07-19T20:50:49.520Z,21.60
2018-07-19T20:53:18.414Z,21.60
2018-07-19T20:55:46.902Z,21.60
2018-07-19T20:58:15.382Z,21.60
2018-07-19T21:00:44.671Z,21.50
2018-07-19T21:03:13.185Z,21.50
2018-07-19T21:05:41.674Z,21.50
2018-07-19T21:08:10.134Z,21.50
2018-07-19T21:10:38.643Z,21.50
2018-07-19T21:13:08.430Z,21.50
2018-07-19T21:15:36.890Z,21.40
2018-07-19T21:18:05.399Z,21.30
2018-07-19T21:20:33.884Z,21.30
2018-07-19T21:23:02.350Z,21.20
2018-07-19T21:25:30.806Z,21.20
2018-07-19T21:27:59.523Z,21.10
2018-07-19T21:30:27.990Z,21.10
2018-07-19T21:32:56.422Z,21.10
2018-07-19T21:35:25.124Z,21.10
2018-07-19T21:37:53.819Z,21.10
2018-07-19T21:40:22.284Z,21.00
2018-07-19T21:42:50.766Z,20.90
2018-07-19T21:45:19.214Z,20.80
2018-07-19T21:47:47.738Z,20.80
2018-07-19T21:52:44.413Z,20.60
2018-07-19T21:55:13.005Z,20.50
2018-07-19T21:57:41.477Z,20.50
2018-07-19T22:00:10.019Z,20.40
2018-07-19T22:02:38.536Z,20.50
2018-07-19T22:07:35.159Z,20.40
2018-07-19T22:10:03.839Z,20.40
2018-07-19T22:12:32.318Z,20.30
2018-07-19T22:15:00.855Z,20.30
2018-07-19T22:17:29.514Z,20.30
2018-07-19T22:19:58.009Z,20.30
2018-07-19T22:24:54.851Z,20.20
2018-07-19T22:27:23.552Z,20.20
2018-07-19T22:32:20.199Z,20.10
2018-07-19T22:34:48.705Z,20.10
2018-07-19T22:37:17.169Z,20.00
2018-07-19T22:39:45.623Z,20.00
2018-07-19T22:42:14.111Z,20.00
2018-07-19T22:44:42.598Z,19.90
2018-07-19T22:47:11.157Z,19.80
2018-07-19T22:49:39.607Z,19.80
2018-07-19T22:52:08.155Z,19.70
2018-07-19T22:54:36.675Z,19.70
2018-07-19T22:57:05.199Z,19.70
2018-07-19T22:59:33.722Z,19.60
2018-07-19T23:02:02.258Z,19.60
2018-07-19T23:04:30.686Z,19.50
2018-07-19T23:09:27.292Z,19.50
2018-07-19T23:11:55.813Z,19.50
2018-07-19T23:14:24.278Z,19.40
2018-07-19T23:16:52.766Z,19.40
2018-07-19T23:19:21.258Z,19.40
2018-07-19T23:21:49.723Z,19.40
2018-07-19T23:24:18.417Z,19.40
2018-07-19T23:26:46.917Z,19.40
2018-07-19T23:29:15.622Z,19.30
2018-07-19T23:31:44.254Z,19.30
2018-07-19T23:34:12.755Z,19.30
2018-07-19T23:36:46.824Z,19.20
2018-07-19T23:41:22.666Z,19.20
2018-07-19T23:43:54.654Z,19.20
2018-07-19T23:46:26.134Z,19.20
2018-07-19T23:48:56.016Z,19.20
2018-07-19T23:51:24.477Z,19.20
2018-07-19T23:56:21.109Z,19.20
2018-07-19T23:58:49.577Z,19.20
